Airfield :
LOGIN :

Register | Disclaimer

   EN    FR    IT 

 










Legend :    VFR   Marginal VFR   IFR   Intensive IFR   Very Intensive IFR
Visi :
Ceiling :
>= 8 km
>= 3000ft
5 to 8 km
1000 to 3000 ft
1500m to 5 km
500 to 1000 ft
800 to 1500m
200 to 500 ft
< 800m
< 200 ft
Symbols :   Thunderstorms  Fog  Heavy snow  Heavy precipitations  Wind > 20 kt
SIGMETs :     Misc.  Thunderstorms  Icing  Turbulence  Mountain Waves  Volcanic Ashes






- Airport Elevation : -15 ft
- IATA code : RTM


EHRD - Rotterdam Zestienhoven

CURRENT METAR :
  • 081155Z AUTO 07003KT 350V150 9999 NSC 22/11 Q1024 NOSIG

EXPIRED METARs :
  • 081125Z AUTO 05003KT 330V120 9999 NSC 21/09 Q1024 NOSIG
  • 081055Z AUTO 03004KT 330V080 9999 NSC 20/09 Q1024 NOSIG
  • 081025Z AUTO 36004KT 280V030 9999 NSC 19/09 Q1024 NOSIG
  • 080955Z AUTO VRB01KT 9999 NSC 19/10 Q1025 NOSIG

TAF TAF EHRD
Valid from the 08 at 12:00 until the 09 at 18:00 UTC


081055Z 0812/0918 06005KT CAVOK
BECMG 0912/0915 05010KT



MET'MAP, your aeronautical weather chart ! - Copyright ORBIFLY December 2007 - Disclaimer

ORBIFLY MET'MAP TEAM :

Programming & Development : Alexandra Zaïnal
Concept & original design : Baudouin d'Aumeries
Assistance for programming : Marc-Olivier Méhu
Technical & hardware support : Manuel Goepfert

Contact : metmap@orbifly.com




SOURCES & CREDITS :

   NOAA